createdAt,value
2019-05-28T00:01:08.808Z,14.10
2019-05-28T00:03:38.013Z,14.00
2019-05-28T00:06:08.247Z,14.10
2019-05-28T00:08:37.574Z,14.10
2019-05-28T00:11:06.936Z,14.00
2019-05-28T00:13:36.304Z,14.00
2019-05-28T00:16:09.109Z,14.00
2019-05-28T00:18:36.685Z,14.00
2019-05-28T00:21:07.175Z,14.00
2019-05-28T00:23:36.974Z,14.00
2019-05-28T00:26:06.187Z,14.00
2019-05-28T00:28:35.474Z,14.00
2019-05-28T00:31:07.259Z,14.00
2019-05-28T00:33:37.628Z,13.90
2019-05-28T00:36:06.976Z,13.90
2019-05-28T00:38:36.176Z,13.90
2019-05-28T00:41:05.863Z,13.90
2019-05-28T00:43:35.425Z,13.90
2019-05-28T00:46:04.666Z,13.90
2019-05-28T00:48:34.158Z,13.90
2019-05-28T00:51:03.758Z,13.90
2019-05-28T00:53:33.421Z,13.80
2019-05-28T00:56:03.793Z,13.80
2019-05-28T00:58:33.681Z,13.80
2019-05-28T01:01:03.034Z,13.80
2019-05-28T01:03:32.477Z,13.80
2019-05-28T01:06:01.864Z,13.80
2019-05-28T01:08:31.155Z,13.80
2019-05-28T01:11:01.140Z,13.80
2019-05-28T01:13:30.418Z,13.80
2019-05-28T01:16:00.055Z,13.80
2019-05-28T01:18:29.350Z,13.70
2019-05-28T01:20:58.687Z,13.70
2019-05-28T01:23:27.911Z,13.70
2019-05-28T01:25:57.115Z,13.70
2019-05-28T01:28:26.397Z,13.80
2019-05-28T01:31:00.359Z,13.70
2019-05-28T01:33:27.217Z,13.70
2019-05-28T01:35:56.491Z,13.70
2019-05-28T01:38:25.702Z,13.70
2019-05-28T01:40:55.226Z,13.70
2019-05-28T01:43:24.485Z,13.70
2019-05-28T01:45:53.789Z,13.70
2019-05-28T01:48:23.073Z,13.70
2019-05-28T01:50:52.626Z,13.60
2019-05-28T01:53:22.169Z,13.60
2019-05-28T01:55:51.871Z,13.60
2019-05-28T01:58:21.182Z,13.60
2019-05-28T02:00:50.455Z,13.50
2019-05-28T02:03:20.291Z,13.50
2019-05-28T02:05:49.519Z,13.50
2019-05-28T02:08:18.790Z,13.50
2019-05-28T02:10:48.128Z,13.40
2019-05-28T02:13:19.432Z,13.40
2019-05-28T02:15:48.854Z,13.40
2019-05-28T02:18:18.391Z,13.40
2019-05-28T02:20:47.866Z,13.30
2019-05-28T02:23:17.631Z,13.30
2019-05-28T02:25:47.119Z,13.30
2019-05-28T02:28:16.759Z,13.30
2019-05-28T02:30:46.388Z,13.30
2019-05-28T02:33:15.669Z,13.20
2019-05-28T02:35:44.845Z,13.20
2019-05-28T02:38:14.143Z,13.20
2019-05-28T02:40:45.885Z,13.20
2019-05-28T02:43:15.182Z,13.20
2019-05-28T02:45:44.685Z,13.20
2019-05-28T02:48:13.866Z,13.20
2019-05-28T02:51:03.050Z,13.20
2019-05-28T02:53:33.139Z,13.20
2019-05-28T02:56:02.669Z,13.20
2019-05-28T02:58:36.428Z,13.20
2019-05-28T03:01:07.679Z,13.20
2019-05-28T03:03:37.267Z,13.20
2019-05-28T03:06:11.293Z,13.20
2019-05-28T03:08:40.468Z,13.20
2019-05-28T03:11:09.880Z,13.10
2019-05-28T03:13:39.338Z,13.20
2019-05-28T03:16:09.734Z,13.20
2019-05-28T03:18:40.840Z,13.20
2019-05-28T03:21:11.214Z,13.20
2019-05-28T03:23:42.237Z,13.20
2019-05-28T03:26:11.455Z,13.20
2019-05-28T03:28:40.774Z,13.20
2019-05-28T03:31:10.087Z,13.20
2019-05-28T03:33:39.901Z,13.20
2019-05-28T03:36:11.432Z,13.20
2019-05-28T03:38:41.732Z,13.20
2019-05-28T03:41:11.506Z,13.30
2019-05-28T03:43:40.974Z,13.20
2019-05-28T03:46:10.156Z,13.20
2019-05-28T03:48:39.924Z,13.20
2019-05-28T03:51:09.538Z,13.20
2019-05-28T03:53:38.836Z,13.30
2019-05-28T03:56:08.405Z,13.30
2019-05-28T03:58:37.843Z,13.30
2019-05-28T04:01:07.442Z,13.30
2019-05-28T04:03:36.929Z,13.30
2019-05-28T04:06:06.173Z,13.30
2019-05-28T04:08:35.676Z,13.20
2019-05-28T04:11:05.107Z,13.30
2019-05-28T04:13:34.721Z,13.30
2019-05-28T04:16:04.480Z,13.30
2019-05-28T04:18:34.296Z,13.20
2019-05-28T04:21:03.858Z,13.30
2019-05-28T04:23:33.789Z,13.30
2019-05-28T04:26:03.271Z,13.30
2019-05-28T04:28:32.986Z,13.30
2019-05-28T04:31:03.293Z,13.30
2019-05-28T04:33:33.154Z,13.20
2019-05-28T04:36:02.831Z,13.30
2019-05-28T04:38:32.461Z,13.30
2019-05-28T04:41:01.772Z,13.20
2019-05-28T04:43:31.148Z,13.20
2019-05-28T04:46:00.744Z,13.20
2019-05-28T04:48:30.305Z,13.20
2019-05-28T04:50:59.843Z,13.10
2019-05-28T04:53:29.146Z,13.10
2019-05-28T04:55:58.541Z,13.00
2019-05-28T04:58:27.962Z,13.00
2019-05-28T05:00:57.597Z,13.00
2019-05-28T05:03:27.306Z,13.00
2019-05-28T05:05:57.142Z,12.90
2019-05-28T05:08:26.891Z,13.00
2019-05-28T05:10:57.013Z,12.90
2019-05-28T05:13:27.469Z,12.90
2019-05-28T05:15:57.000Z,12.90
2019-05-28T05:18:26.435Z,13.00
2019-05-28T05:20:56.025Z,13.00
2019-05-28T05:23:25.326Z,13.00
2019-05-28T05:25:54.687Z,12.90
2019-05-28T05:28:24.404Z,12.90
2019-05-28T05:33:30.379Z,12.90
2019-05-28T05:58:57.074Z,12.70
2019-05-28T06:01:28.115Z,12.40
2019-05-28T06:04:00.846Z,12.40
2019-05-28T08:35:25.555Z,12.40
2019-05-28T08:38:37.575Z,12.40
2019-05-28T08:41:07.141Z,12.30
2019-05-28T08:43:36.895Z,12.40
2019-05-28T08:46:06.679Z,12.40
2019-05-28T08:48:40.933Z,12.40
2019-05-28T08:51:10.562Z,12.40
2019-05-28T08:53:51.619Z,12.40
2019-05-28T08:56:21.305Z,12.40
2019-05-28T08:58:51.792Z,12.30
2019-05-28T09:01:21.568Z,12.30
2019-05-28T09:03:51.114Z,12.30
2019-05-28T09:06:24.458Z,12.30
2019-05-28T09:08:51.975Z,12.30
2019-05-28T09:11:21.222Z,12.40
2019-05-28T09:13:51.421Z,12.30
2019-05-28T09:16:20.885Z,12.30
2019-05-28T09:18:50.524Z,12.30
2019-05-28T09:21:20.406Z,12.40
2019-05-28T09:23:50.023Z,12.40
2019-05-28T09:26:19.553Z,12.40
2019-05-28T09:28:51.329Z,12.40
2019-05-28T09:31:20.927Z,12.40
2019-05-28T09:33:50.662Z,12.40
2019-05-28T09:36:20.225Z,12.30
2019-05-28T09:38:50.230Z,12.30
2019-05-28T09:41:19.667Z,12.30
2019-05-28T09:43:49.469Z,12.20
2019-05-28T09:46:18.873Z,12.20
2019-05-28T09:48:48.185Z,12.20
2019-05-28T09:51:18.297Z,12.20
2019-05-28T09:53:48.208Z,12.30
2019-05-28T09:56:20.031Z,12.20
2019-05-28T09:58:49.461Z,12.30
2019-05-28T10:01:19.743Z,12.30
2019-05-28T10:03:49.790Z,12.30
2019-05-28T10:06:19.374Z,12.30
2019-05-28T10:08:48.930Z,12.40
2019-05-28T10:11:18.489Z,12.40
2019-05-28T10:13:47.922Z,12.40
2019-05-28T10:16:17.668Z,12.50
2019-05-28T10:18:47.146Z,12.70
2019-05-28T10:21:19.140Z,12.70
2019-05-28T10:23:49.051Z,12.80
2019-05-28T10:26:19.256Z,12.80
2019-05-28T10:28:50.687Z,12.80
2019-05-28T10:31:20.483Z,12.70
2019-05-28T10:33:53.398Z,12.80
2019-05-28T10:36:34.917Z,12.90
2019-05-28T10:47:37.072Z,12.90
2019-05-28T10:52:56.316Z,12.90
2019-05-28T11:20:53.147Z,13.60
2019-05-28T11:35:47.378Z,14.30
2019-05-28T11:38:44.633Z,14.50
2019-05-28T11:41:11.584Z,14.50
2019-05-28T11:43:57.672Z,14.60
2019-05-28T11:46:53.923Z,14.70
2019-05-28T11:49:24.325Z,14.60
2019-05-28T11:52:07.080Z,14.70
2019-05-28T11:55:17.198Z,14.70
2019-05-28T11:57:56.124Z,14.80
2019-05-28T12:00:29.587Z,14.60
2019-05-28T12:08:17.797Z,14.90
2019-05-28T12:11:07.069Z,14.80
2019-05-28T12:13:37.066Z,14.90
2019-05-28T12:16:24.391Z,14.90
2019-05-28T12:21:34.678Z,14.70
2019-05-28T12:24:22.408Z,14.80
2019-05-28T12:26:52.087Z,14.90
2019-05-28T12:29:21.772Z,14.90
2019-05-28T12:34:32.193Z,15.10
2019-05-28T12:37:03.850Z,15.20
2019-05-28T12:39:39.047Z,15.20
2019-05-28T12:42:28.975Z,15.20
2019-05-28T12:45:09.306Z,15.10
2019-05-28T12:47:30.923Z,15.10
2019-05-28T12:50:18.148Z,15.20
2019-05-28T12:52:40.813Z,15.00
2019-05-28T12:55:12.698Z,15.00
2019-05-28T12:57:42.427Z,15.20
2019-05-28T13:00:15.527Z,15.10
2019-05-28T13:02:47.452Z,15.10
2019-05-28T13:05:18.167Z,15.20
2019-05-28T13:08:07.352Z,15.10
2019-05-28T13:10:21.839Z,15.00
2019-05-28T13:12:57.163Z,15.10
2019-05-28T13:15:47.151Z,15.00
2019-05-28T13:18:24.943Z,15.00
2019-05-28T13:20:52.539Z,14.90
2019-05-28T13:23:29.814Z,14.90
2019-05-28T13:26:02.624Z,14.90
2019-05-28T13:28:42.040Z,15.00
2019-05-28T13:31:59.523Z,15.00
2019-05-28T13:34:43.989Z,15.00
2019-05-28T13:37:33.677Z,15.20
2019-05-28T13:40:09.077Z,14.40
2019-05-28T13:42:46.195Z,15.40
2019-05-28T13:45:16.078Z,15.40
2019-05-28T13:47:46.861Z,15.40
2019-05-28T13:50:18.252Z,15.50
2019-05-28T13:52:51.282Z,15.50
2019-05-28T13:55:22.616Z,15.70
2019-05-28T13:58:07.236Z,15.60
2019-05-28T14:00:59.371Z,15.60
2019-05-28T14:03:29.846Z,15.70
2019-05-28T14:05:59.721Z,15.80
2019-05-28T14:08:45.915Z,15.80
2019-05-28T14:11:09.673Z,15.80
2019-05-28T14:13:39.512Z,15.90
2019-05-28T14:16:08.961Z,16.10
2019-05-28T14:18:58.973Z,16.00
2019-05-28T14:21:39.448Z,16.00
2019-05-28T14:24:09.513Z,15.90
2019-05-28T14:26:44.905Z,15.90
2019-05-28T14:29:30.240Z,15.90
2019-05-28T14:32:01.433Z,16.20
2019-05-28T14:34:44.584Z,16.00
2019-05-28T14:37:19.435Z,16.00
2019-05-28T14:40:27.797Z,15.90
2019-05-28T14:43:00.470Z,16.00
2019-05-28T14:45:30.391Z,16.10
2019-05-28T14:48:08.531Z,16.10
2019-05-28T14:50:50.895Z,16.00
2019-05-28T14:53:22.150Z,15.90
2019-05-28T14:55:55.524Z,16.00
2019-05-28T14:58:51.198Z,16.20
2019-05-28T15:01:25.068Z,16.10
2019-05-28T15:04:18.349Z,15.90
2019-05-28T15:07:22.331Z,16.10
2019-05-28T15:09:52.150Z,15.90
2019-05-28T15:15:35.111Z,15.80
2019-05-28T15:17:56.128Z,15.80
2019-05-28T15:20:42.293Z,15.80
2019-05-28T15:23:11.763Z,15.90
2019-05-28T15:28:40.564Z,15.90
2019-05-28T15:31:10.252Z,16.00
2019-05-28T15:33:50.022Z,16.00
2019-05-28T15:36:51.577Z,16.00
2019-05-28T15:39:44.571Z,15.80
2019-05-28T15:46:08.578Z,15.50
2019-05-28T15:49:07.152Z,15.60
2019-05-28T15:52:08.006Z,15.40
2019-05-28T15:58:12.794Z,15.40
2019-05-28T16:08:11.383Z,15.30
2019-05-28T16:13:53.635Z,15.20
2019-05-28T16:20:03.428Z,15.30
2019-05-28T16:22:35.410Z,15.10
2019-05-28T16:25:36.700Z,15.10
2019-05-28T16:28:40.916Z,15.10
2019-05-28T16:31:57.406Z,15.20
2019-05-28T16:37:48.385Z,15.10
2019-05-28T16:40:49.556Z,15.00
2019-05-28T16:43:49.209Z,14.90
2019-05-28T16:46:34.711Z,14.90
2019-05-28T16:49:09.772Z,14.90
2019-05-28T16:52:20.658Z,14.90
2019-05-28T16:55:03.322Z,14.80
2019-05-28T16:57:37.179Z,14.80
2019-05-28T17:00:10.681Z,14.80
2019-05-28T17:03:01.917Z,14.80
2019-05-28T17:05:53.147Z,14.70
2019-05-28T17:08:24.452Z,14.70
2019-05-28T17:11:01.825Z,14.60
2019-05-28T17:13:48.755Z,14.50
2019-05-28T17:16:28.049Z,14.50
2019-05-28T17:19:09.133Z,14.40
2019-05-28T17:21:38.768Z,14.40
2019-05-28T17:24:33.770Z,14.30
2019-05-28T17:27:03.562Z,14.40
2019-05-28T17:29:41.773Z,14.40
2019-05-28T17:45:32.365Z,14.30
2019-05-28T17:48:14.891Z,14.20
2019-05-28T18:14:42.024Z,14.00
2019-05-28T18:20:41.572Z,13.90
2019-05-28T18:43:57.443Z,13.80
2019-05-28T18:47:21.537Z,13.80
2019-05-28T18:55:15.372Z,13.60
2019-05-28T19:03:37.310Z,13.50
2019-05-28T19:28:03.636Z,12.20
2019-05-28T20:02:21.097Z,12.50
2019-05-28T20:04:50.576Z,12.40
2019-05-28T20:07:19.934Z,12.40
2019-05-28T20:09:49.333Z,12.40
2019-05-28T20:12:19.023Z,12.40
2019-05-28T20:14:48.387Z,12.30
2019-05-28T20:17:17.925Z,12.30
2019-05-28T20:19:47.440Z,12.30
2019-05-28T20:22:19.083Z,12.20
2019-05-28T20:24:49.736Z,12.20
2019-05-28T20:27:19.285Z,12.10
2019-05-28T20:29:48.589Z,12.10
2019-05-28T20:32:17.946Z,12.10
2019-05-28T20:34:47.291Z,12.10
2019-05-28T20:37:16.610Z,12.10
2019-05-28T20:39:46.029Z,12.00
2019-05-28T20:42:26.989Z,12.00
2019-05-28T20:44:46.486Z,12.00
2019-05-28T20:47:15.892Z,11.90
2019-05-28T20:49:45.258Z,11.90
2019-05-28T20:52:14.726Z,11.80
2019-05-28T20:54:44.081Z,11.80
2019-05-28T20:57:14.976Z,11.70
2019-05-28T20:59:44.325Z,11.70
2019-05-28T21:02:13.838Z,11.70
2019-05-28T21:04:43.289Z,11.60
2019-05-28T21:07:12.652Z,11.60
2019-05-28T21:09:42.084Z,11.60
2019-05-28T21:12:11.515Z,11.50
2019-05-28T21:14:41.510Z,11.50
2019-05-28T21:17:11.030Z,11.50
2019-05-28T21:19:40.793Z,11.40
2019-05-28T21:22:23.827Z,11.40
2019-05-28T21:24:41.963Z,11.40
2019-05-28T21:27:11.932Z,11.30
2019-05-28T21:29:41.649Z,11.30
2019-05-28T21:32:11.152Z,11.30
2019-05-28T21:34:41.337Z,11.20
2019-05-28T21:37:10.787Z,11.20
2019-05-28T21:39:40.231Z,11.20
2019-05-28T21:42:09.595Z,11.10
2019-05-28T21:44:38.953Z,11.10
2019-05-28T21:47:10.925Z,11.10
2019-05-28T21:49:40.319Z,11.00
2019-05-28T21:52:10.028Z,11.00
2019-05-28T21:54:40.451Z,10.90
2019-05-28T21:57:09.934Z,10.90
2019-05-28T21:59:40.365Z,10.90
2019-05-28T22:02:11.209Z,10.90
2019-05-28T22:04:40.731Z,10.80
2019-05-28T22:07:10.254Z,10.80
2019-05-28T22:09:39.924Z,10.70
2019-05-28T22:12:09.528Z,10.70
2019-05-28T22:14:40.379Z,10.70
2019-05-28T22:17:12.974Z,10.70
2019-05-28T22:19:41.280Z,10.60
2019-05-28T22:22:10.748Z,10.60
2019-05-28T22:24:43.327Z,10.60
2019-05-28T22:27:12.748Z,10.50
2019-05-28T22:29:42.156Z,10.50
2019-05-28T22:32:11.728Z,10.50
2019-05-28T22:34:41.328Z,10.50
2019-05-28T22:37:11.080Z,10.40
2019-05-28T22:39:40.693Z,10.40
2019-05-28T22:42:10.550Z,10.40
2019-05-28T22:44:41.073Z,10.40
2019-05-28T22:47:10.853Z,10.30
2019-05-28T22:49:41.050Z,10.30
2019-05-28T22:52:10.668Z,10.30
2019-05-28T22:54:40.208Z,10.30
2019-05-28T22:57:10.344Z,10.20
2019-05-28T22:59:56.572Z,10.20
2019-05-28T23:02:27.202Z,10.20
2019-05-28T23:04:57.131Z,10.10
2019-05-28T23:07:29.114Z,10.10
2019-05-28T23:10:03.620Z,10.10
2019-05-28T23:12:34.733Z,10.00
2019-05-28T23:15:05.938Z,10.00
2019-05-28T23:17:38.380Z,10.00
2019-05-28T23:20:09.288Z,10.00
2019-05-28T23:22:39.104Z,10.00
2019-05-28T23:25:09.704Z,9.90
2019-05-28T23:27:39.162Z,9.90
2019-05-28T23:30:21.366Z,9.90
2019-05-28T23:32:41.010Z,9.80
2019-05-28T23:35:12.794Z,9.80
2019-05-28T23:37:43.556Z,9.80
2019-05-28T23:40:16.862Z,9.80
2019-05-28T23:42:49.514Z,9.80
2019-05-28T23:45:19.273Z,9.70
2019-05-28T23:47:52.163Z,9.70
2019-05-28T23:50:21.794Z,9.70
2019-05-28T23:52:51.642Z,9.70
2019-05-28T23:55:21.018Z,9.70
2019-05-28T23:57:51.135Z,9.60
